sensor_id;sensor_type;location;lat;lon;timestamp;pressure;altitude;pressure_sealevel;temperature;humidity
42003;BME280;27693;50.506;30.832;2023-05-03T00:00:12;100402.38;;;10.98;47.11
42003;BME280;27693;50.506;30.832;2023-05-03T00:01:14;100406.17;;;10.89;47.39
42003;BME280;27693;50.506;30.832;2023-05-03T00:02:17;100409.45;;;10.94;47.44
42003;BME280;27693;50.506;30.832;2023-05-03T00:03:20;100403.34;;;10.95;47.49
42003;BME280;27693;50.506;30.832;2023-05-03T00:04:24;100411.83;;;11.00;47.37
42003;BME280;27693;50.506;30.832;2023-05-03T00:05:27;100410.83;;;11.05;47.19
42003;BME280;27693;50.506;30.832;2023-05-03T00:06:29;100407.30;;;11.06;47.15
42003;BME280;27693;50.506;30.832;2023-05-03T00:07:32;100411.44;;;11.11;47.13
42003;BME280;27693;50.506;30.832;2023-05-03T00:08:35;100411.44;;;11.11;47.18
42003;BME280;27693;50.506;30.832;2023-05-03T00:09:37;100405.63;;;11.05;47.27
42003;BME280;27693;50.506;30.832;2023-05-03T00:10:39;100405.72;;;11.01;47.35
42003;BME280;27693;50.506;30.832;2023-05-03T00:11:42;100414.20;;;11.07;47.34
42003;BME280;27693;50.506;30.832;2023-05-03T00:12:44;100409.87;;;11.07;47.35
42003;BME280;27693;50.506;30.832;2023-05-03T00:13:47;100416.81;;;11.07;47.25
42003;BME280;27693;50.506;30.832;2023-05-03T00:14:49;100415.91;;;11.08;47.50
42003;BME280;27693;50.506;30.832;2023-05-03T00:15:53;100416.71;;;11.10;47.46
42003;BME280;27693;50.506;30.832;2023-05-03T00:16:56;100407.09;;;11.12;47.41
42003;BME280;27693;50.506;30.832;2023-05-03T00:17:59;100414.11;;;11.10;47.54
42003;BME280;27693;50.506;30.832;2023-05-03T00:19:02;100407.42;;;11.02;47.71
42003;BME280;27693;50.506;30.832;2023-05-03T00:20:06;100405.83;;;10.98;47.83
42003;BME280;27693;50.506;30.832;2023-05-03T00:21:10;100409.23;;;11.00;47.78
42003;BME280;27693;50.506;30.832;2023-05-03T00:22:12;100402.16;;;11.04;47.70
42003;BME280;27693;50.506;30.832;2023-05-03T00:23:15;100408.90;;;11.10;47.54
42003;BME280;27693;50.506;30.832;2023-05-03T00:24:17;100410.61;;;11.11;47.53
42003;BME280;27693;50.506;30.832;2023-05-03T00:25:19;100401.25;;;11.05;47.84
42003;BME280;27693;50.506;30.832;2023-05-03T00:26:22;100402.16;;;11.04;48.01
42003;BME280;27693;50.506;30.832;2023-05-03T00:27:24;100401.19;;;11.07;47.90
42003;BME280;27693;50.506;30.832;2023-05-03T00:28:27;100405.50;;;11.08;47.88
42003;BME280;27693;50.506;30.832;2023-05-03T00:29:29;100401.98;;;11.09;47.92
42003;BME280;27693;50.506;30.832;2023-05-03T00:30:32;100408.03;;;11.09;47.95
42003;BME280;27693;50.506;30.832;2023-05-03T00:31:35;100400.42;;;11.05;48.15
42003;BME280;27693;50.506;30.832;2023-05-03T00:32:37;100404.15;;;10.97;48.22
42003;BME280;27693;50.506;30.832;2023-05-03T00:33:40;100401.42;;;11.00;48.20
42003;BME280;27693;50.506;30.832;2023-05-03T00:34:43;100407.30;;;11.06;48.25
42003;BME280;27693;50.506;30.832;2023-05-03T00:35:45;100401.98;;;11.09;48.12
42003;BME280;27693;50.506;30.832;2023-05-03T00:36:48;100399.38;;;11.09;48.22
42003;BME280;27693;50.506;30.832;2023-05-03T00:37:50;100395.14;;;11.06;48.26
42003;BME280;27693;50.506;30.832;2023-05-03T00:38:52;100398.58;;;11.07;48.26
42003;BME280;27693;50.506;30.832;2023-05-03T00:39:55;100398.58;;;11.07;48.37
42003;BME280;27693;50.506;30.832;2023-05-03T00:40:58;100391.36;;;10.91;48.86
42003;BME280;27693;50.506;30.832;2023-05-03T00:42:03;100391.36;;;10.91;48.86
42003;BME280;27693;50.506;30.832;2023-05-03T00:43:05;100402.31;;;10.99;48.78
42003;BME280;27693;50.506;30.832;2023-05-03T00:44:08;100397.91;;;11.01;49.02
42003;BME280;27693;50.506;30.832;2023-05-03T00:45:11;100398.01;;;10.98;48.86
42003;BME280;27693;50.506;30.832;2023-05-03T00:46:14;100393.54;;;11.02;48.77
42003;BME280;27693;50.506;30.832;2023-05-03T00:47:18;100397.23;;;10.96;48.83
42003;BME280;27693;50.506;30.832;2023-05-03T00:48:21;100397.11;;;10.99;48.95
42003;BME280;27693;50.506;30.832;2023-05-03T00:49:24;100395.41;;;10.98;48.94
42003;BME280;27693;50.506;30.832;2023-05-03T00:50:27;100390.20;;;10.98;49.00
42003;BME280;27693;50.506;30.832;2023-05-03T00:51:29;100397.23;;;10.96;48.99
42003;BME280;27693;50.506;30.832;2023-05-03T00:52:33;100397.23;;;10.96;48.99
42003;BME280;27693;50.506;30.832;2023-05-03T00:53:36;100391.30;;;10.93;49.32
42003;BME280;27693;50.506;30.832;2023-05-03T00:54:39;100393.03;;;10.92;49.37
42003;BME280;27693;50.506;30.832;2023-05-03T00:55:45;100391.30;;;10.93;49.39
42003;BME280;27693;50.506;30.832;2023-05-03T00:56:47;100386.19;;;10.90;49.54
42003;BME280;27693;50.506;30.832;2023-05-03T00:57:51;100391.39;;;10.90;49.54
42003;BME280;27693;50.506;30.832;2023-05-03T00:58:54;100394.00;;;10.90;49.57
42003;BME280;27693;50.506;30.832;2023-05-03T00:59:57;100390.66;;;10.86;49.73
42003;BME280;27693;50.506;30.832;2023-05-03T01:01:01;100393.39;;;10.83;50.01
42003;BME280;27693;50.506;30.832;2023-05-03T01:02:04;100385.58;;;10.83;50.02
42003;BME280;27693;50.506;30.832;2023-05-03T01:03:06;100392.58;;;10.81;49.96
42003;BME280;27693;50.506;30.832;2023-05-03T01:04:09;100396.89;;;10.82;49.83
42003;BME280;27693;50.506;30.832;2023-05-03T01:05:11;100388.95;;;10.85;49.98
42003;BME280;27693;50.506;30.832;2023-05-03T01:07:29;100392.42;;;10.85;50.01
42003;BME280;27693;50.506;30.832;2023-05-03T01:10:07;100386.83;;;10.96;50.21
42003;BME280;27693;50.506;30.832;2023-05-03T01:11:12;100390.66;;;10.86;49.99
42003;BME280;27693;50.506;30.832;2023-05-03T01:12:23;100401.94;;;10.86;50.31
42003;BME280;27693;50.506;30.832;2023-05-03T01:14:45;100393.22;;;10.88;50.21
42003;BME280;27693;50.506;30.832;2023-05-03T01:16:52;100391.45;;;10.88;50.29
42003;BME280;27693;50.506;30.832;2023-05-03T01:18:05;100389.08;;;10.82;50.48
42003;BME280;27693;50.506;30.832;2023-05-03T01:20:29;100394.28;;;10.82;50.48
42003;BME280;27693;50.506;30.832;2023-05-03T01:21:35;100384.67;;;10.84;50.43
42003;BME280;27693;50.506;30.832;2023-05-03T01:22:55;100381.14;;;10.85;50.51
42003;BME280;27693;50.506;30.832;2023-05-03T01:23:58;100380.47;;;10.80;50.63
42003;BME280;27693;50.506;30.832;2023-05-03T01:25:08;100379.21;;;10.66;50.95
42003;BME280;27693;50.506;30.832;2023-05-03T01:26:19;100382.19;;;10.55;51.36
42003;BME280;27693;50.506;30.832;2023-05-03T01:27:24;100375.13;;;10.59;51.34
42003;BME280;27693;50.506;30.832;2023-05-03T01:28:27;100375.94;;;10.61;51.33
42003;BME280;27693;50.506;30.832;2023-05-03T01:29:29;100372.30;;;10.65;51.27
42003;BME280;27693;50.506;30.832;2023-05-03T01:30:33;100373.94;;;10.68;51.23
42003;BME280;27693;50.506;30.832;2023-05-03T01:36:10;100374.66;;;10.73;51.09
42003;BME280;27693;50.506;30.832;2023-05-03T01:37:10;100372.72;;;10.78;50.97
42003;BME280;27693;50.506;30.832;2023-05-03T01:38:15;100366.55;;;10.81;51.04
42003;BME280;27693;50.506;30.832;2023-05-03T01:39:25;100366.55;;;10.81;51.04
42003;BME280;27693;50.506;30.832;2023-05-03T01:40:28;100354.44;;;10.80;51.24
42003;BME280;27693;50.506;30.832;2023-05-03T01:41:33;100371.02;;;10.77;51.28
42003;BME280;27693;50.506;30.832;2023-05-03T01:42:38;100360.09;;;10.67;51.59
42003;BME280;27693;50.506;30.832;2023-05-03T01:43:42;100366.36;;;10.62;51.79
42003;BME280;27693;50.506;30.832;2023-05-03T01:44:46;100365.39;;;10.64;51.76
42003;BME280;27693;50.506;30.832;2023-05-03T01:45:49;100366.36;;;10.62;51.93
42003;BME280;27693;50.506;30.832;2023-05-03T01:46:52;100359.45;;;10.61;51.99
42003;BME280;27693;50.506;30.832;2023-05-03T01:47:55;100362.25;;;10.56;52.09
42003;BME280;27693;50.506;30.832;2023-05-03T01:48:58;100356.02;;;10.60;52.02
42003;BME280;27693;50.506;30.832;2023-05-03T01:50:00;100358.74;;;10.57;52.02
42003;BME280;27693;50.506;30.832;2023-05-03T01:51:03;100359.58;;;10.58;52.12
42003;BME280;27693;50.506;30.832;2023-05-03T01:52:05;100356.30;;;10.52;52.22
42003;BME280;27693;50.506;30.832;2023-05-03T01:53:09;100355.34;;;10.55;52.18
42003;BME280;27693;50.506;30.832;2023-05-03T01:54:11;100354.75;;;10.47;52.40
42003;BME280;27693;50.506;30.832;2023-05-03T01:55:13;100358.31;;;10.44;52.53
42003;BME280;27693;50.506;30.832;2023-05-03T01:56:17;100354.69;;;10.48;52.37
42003;BME280;27693;50.506;30.832;2023-05-03T01:57:19;100349.39;;;10.51;52.18
42003;BME280;27693;50.506;30.832;2023-05-03T01:58:21;100354.53;;;10.53;52.31
42003;BME280;27693;50.506;30.832;2023-05-03T01:59:24;100357.94;;;10.55;52.14
42003;BME280;27693;50.506;30.832;2023-05-03T02:00:26;100350.07;;;10.57;52.09
42003;BME280;27693;50.506;30.832;2023-05-03T02:01:29;100356.39;;;10.49;52.26
42003;BME280;27693;50.506;30.832;2023-05-03T02:02:31;100352.83;;;10.52;52.23
42003;BME280;27693;50.506;30.832;2023-05-03T02:03:34;100355.44;;;10.52;52.38
42003;BME280;27693;50.506;30.832;2023-05-03T02:04:36;100348.43;;;10.54;52.26
42003;BME280;27693;50.506;30.832;2023-05-03T02:05:39;100349.39;;;10.51;52.33
42003;BME280;27693;50.506;30.832;2023-05-03T02:06:43;100354.53;;;10.53;52.16
42003;BME280;27693;50.506;30.832;2023-05-03T02:07:46;100351.94;;;10.53;52.41
42003;BME280;27693;50.506;30.832;2023-05-03T02:08:48;100357.13;;;10.53;52.50
42003;BME280;27693;50.506;30.832;2023-05-03T02:09:51;100351.25;;;10.48;52.56
42003;BME280;27693;50.506;30.832;2023-05-03T02:10:53;100354.08;;;10.42;52.76
42003;BME280;27693;50.506;30.832;2023-05-03T02:11:55;100352.24;;;10.44;52.80
42003;BME280;27693;50.506;30.832;2023-05-03T02:12:58;100359.15;;;10.45;52.73
42003;BME280;27693;50.506;30.832;2023-05-03T02:14:00;100356.52;;;10.46;52.69
42003;BME280;27693;50.506;30.832;2023-05-03T02:15:03;100352.16;;;10.47;52.77
42003;BME280;27693;50.506;30.832;2023-05-03T02:16:06;100359.15;;;10.45;52.87
42003;BME280;27693;50.506;30.832;2023-05-03T02:17:08;100350.58;;;10.43;53.03
42003;BME280;27693;50.506;30.832;2023-05-03T02:18:12;100360.98;;;10.43;52.91
42003;BME280;27693;50.506;30.832;2023-05-03T02:19:15;100357.36;;;10.47;52.79
42003;BME280;27693;50.506;30.832;2023-05-03T02:20:18;100367.67;;;10.50;52.78
42003;BME280;27693;50.506;30.832;2023-05-03T02:21:20;100369.55;;;10.45;52.98
42003;BME280;27693;50.506;30.832;2023-05-03T02:22:23;100365.31;;;10.42;53.03
42003;BME280;27693;50.506;30.832;2023-05-03T02:23:29;100365.47;;;10.37;53.23
42003;BME280;27693;50.506;30.832;2023-05-03T02:24:31;100364.48;;;10.42;53.15
42003;BME280;27693;50.506;30.832;2023-05-03T02:25:35;100371.27;;;10.46;53.14
42003;BME280;27693;50.506;30.832;2023-05-03T02:26:38;100371.17;;;10.49;52.86
42003;BME280;27693;50.506;30.832;2023-05-03T02:27:40;100366.05;;;10.46;53.07
42003;BME280;27693;50.506;30.832;2023-05-03T02:28:42;100369.46;;;10.48;52.93
42003;BME280;27693;50.506;30.832;2023-05-03T02:29:45;100367.77;;;10.47;53.07
42003;BME280;27693;50.506;30.832;2023-05-03T02:30:47;100369.46;;;10.48;53.10
42003;BME280;27693;50.506;30.832;2023-05-03T02:31:51;100372.06;;;10.48;53.02
42003;BME280;27693;50.506;30.832;2023-05-03T02:32:53;100367.86;;;10.44;53.29
42003;BME280;27693;50.506;30.832;2023-05-03T02:33:57;100372.37;;;10.38;53.57
42003;BME280;27693;50.506;30.832;2023-05-03T02:34:59;100362.96;;;10.34;53.76
42003;BME280;27693;50.506;30.832;2023-05-03T02:36:03;100363.92;;;10.32;53.99
42003;BME280;27693;50.506;30.832;2023-05-03T02:37:05;100361.34;;;10.30;54.09
42003;BME280;27693;50.506;30.832;2023-05-03T02:38:09;100370.08;;;10.29;54.03
42003;BME280;27693;50.506;30.832;2023-05-03T02:39:11;100370.85;;;10.31;54.15
42003;BME280;27693;50.506;30.832;2023-05-03T02:40:14;100368.22;;;10.33;54.22
42003;BME280;27693;50.506;30.832;2023-05-03T02:41:17;100376.86;;;10.33;54.06
42003;BME280;27693;50.506;30.832;2023-05-03T02:42:20;100366.55;;;10.30;54.26
42003;BME280;27693;50.506;30.832;2023-05-03T02:43:24;100369.95;;;10.32;54.20
42003;BME280;27693;50.506;30.832;2023-05-03T02:44:27;100367.36;;;10.32;54.19
42003;BME280;27693;50.506;30.832;2023-05-03T02:45:30;100370.77;;;10.34;54.60
42003;BME280;27693;50.506;30.832;2023-05-03T02:46:32;100375.16;;;10.32;54.22
42003;BME280;27693;50.506;30.832;2023-05-03T02:47:35;100371.88;;;10.27;54.37
42003;BME280;27693;50.506;30.832;2023-05-03T02:48:37;100366.67;;;10.27;54.60
42003;BME280;27693;50.506;30.832;2023-05-03T02:49:40;100371.22;;;10.20;54.61
42003;BME280;27693;50.506;30.832;2023-05-03T02:50:42;100367.78;;;10.20;54.68
42003;BME280;27693;50.506;30.832;2023-05-03T02:51:45;100367.56;;;10.26;54.72
42003;BME280;27693;50.506;30.832;2023-05-03T02:52:47;100368.46;;;10.25;54.70
42003;BME280;27693;50.506;30.832;2023-05-03T02:53:50;100371.96;;;10.24;54.73
42003;BME280;27693;50.506;30.832;2023-05-03T02:54:52;100372.02;;;10.22;54.79
42003;BME280;27693;50.506;30.832;2023-05-03T02:55:55;100371.22;;;10.20;54.78
42003;BME280;27693;50.506;30.832;2023-05-03T02:56:58;100366.88;;;10.21;54.90
42003;BME280;27693;50.506;30.832;2023-05-03T02:58:01;100368.67;;;10.19;54.96
42003;BME280;27693;50.506;30.832;2023-05-03T02:59:03;100370.26;;;10.23;54.99
42003;BME280;27693;50.506;30.832;2023-05-03T03:00:08;100365.92;;;10.23;54.91
42003;BME280;27693;50.506;30.832;2023-05-03T03:01:12;100365.05;;;10.23;54.95
42003;BME280;27693;50.506;30.832;2023-05-03T03:02:15;100370.17;;;10.26;55.01
42003;BME280;27693;50.506;30.832;2023-05-03T03:03:19;100366.02;;;10.20;55.25
42003;BME280;27693;50.506;30.832;2023-05-03T03:04:21;100366.02;;;10.20;55.25
42003;BME280;27693;50.506;30.832;2023-05-03T03:05:24;100371.00;;;10.27;55.18
42003;BME280;27693;50.506;30.832;2023-05-03T03:06:28;100365.71;;;10.30;55.18
42003;BME280;27693;50.506;30.832;2023-05-03T03:07:30;100369.13;;;10.32;55.09
42003;BME280;27693;50.506;30.832;2023-05-03T03:08:34;100362.22;;;10.31;55.14
42003;BME280;27693;50.506;30.832;2023-05-03T03:09:37;100366.52;;;10.32;55.24
42003;BME280;27693;50.506;30.832;2023-05-03T03:10:39;100378.63;;;10.33;55.22
42003;BME280;27693;50.506;30.832;2023-05-03T03:11:43;100366.77;;;10.24;55.30
42003;BME280;27693;50.506;30.832;2023-05-03T03:12:45;100367.62;;;10.25;55.47
42003;BME280;27693;50.506;30.832;2023-05-03T03:13:50;100375.45;;;10.23;55.48
42003;BME280;27693;50.506;30.832;2023-05-03T03:14:55;100368.46;;;10.25;55.47
42003;BME280;27693;50.506;30.832;2023-05-03T03:15:58;100372.62;;;10.31;55.70
42003;BME280;27693;50.506;30.832;2023-05-03T03:17:00;100367.30;;;10.34;55.46
42003;BME280;27693;50.506;30.832;2023-05-03T03:18:06;100366.40;;;10.36;55.57
42003;BME280;27693;50.506;30.832;2023-05-03T03:19:10;100367.17;;;10.38;55.47
42003;BME280;27693;50.506;30.832;2023-05-03T03:20:13;100368.87;;;10.39;55.37
42003;BME280;27693;50.506;30.832;2023-05-03T03:21:18;100369.68;;;10.42;55.65
42003;BME280;27693;50.506;30.832;2023-05-03T03:22:21;100370.58;;;10.41;55.50
42003;BME280;27693;50.506;30.832;2023-05-03T03:23:24;100373.86;;;10.46;55.51
42003;BME280;27693;50.506;30.832;2023-05-03T03:24:26;100372.87;;;10.50;55.24
42003;BME280;27693;50.506;30.832;2023-05-03T03:25:28;100373.70;;;10.50;55.15
42003;BME280;27693;50.506;30.832;2023-05-03T03:26:31;100372.16;;;10.45;55.33
42003;BME280;27693;50.506;30.832;2023-05-03T03:27:34;100366.86;;;10.48;55.61
42003;BME280;27693;50.506;30.832;2023-05-03T03:28:39;100365.06;;;10.50;55.48
42003;BME280;27693;50.506;30.832;2023-05-03T03:29:42;100374.45;;;10.54;55.60
42003;BME280;27693;50.506;30.832;2023-05-03T03:30:46;100370.08;;;10.54;55.79
42003;BME280;27693;50.506;30.832;2023-05-03T03:31:51;100366.64;;;10.54;55.55
42003;BME280;27693;50.506;30.832;2023-05-03T03:32:55;100370.14;;;10.53;55.60
42003;BME280;27693;50.506;30.832;2023-05-03T03:33:59;100373.55;;;10.55;55.82
42003;BME280;27693;50.506;30.832;2023-05-03T03:35:02;100374.45;;;10.54;55.98
42003;BME280;27693;50.506;30.832;2023-05-03T03:36:06;100372.74;;;10.53;55.89
42003;BME280;27693;50.506;30.832;2023-05-03T03:37:11;100376.16;;;10.55;55.93
42003;BME280;27693;50.506;30.832;2023-05-03T03:38:14;100369.16;;;10.57;55.75
42003;BME280;27693;50.506;30.832;2023-05-03T03:39:18;100376.03;;;10.58;55.81
42003;BME280;27693;50.506;30.832;2023-05-03T03:40:23;100375.06;;;10.61;56.02
42003;BME280;27693;50.506;30.832;2023-05-03T03:41:26;100368.22;;;10.58;56.01
42003;BME280;27693;50.506;30.832;2023-05-03T03:42:29;100372.53;;;10.59;56.41
42003;BME280;27693;50.506;30.832;2023-05-03T03:43:33;100374.23;;;10.60;56.22
42003;BME280;27693;50.506;30.832;2023-05-03T03:44:37;100376.77;;;10.62;56.26
42003;BME280;27693;50.506;30.832;2023-05-03T03:45:40;100371.63;;;10.60;56.36
42003;BME280;27693;50.506;30.832;2023-05-03T03:46:43;100374.23;;;10.60;56.37
42003;BME280;27693;50.506;30.832;2023-05-03T03:47:46;100379.44;;;10.60;56.25
42003;BME280;27693;50.506;30.832;2023-05-03T03:48:49;100372.59;;;10.58;56.35
42003;BME280;27693;50.506;30.832;2023-05-03T03:49:51;100374.23;;;10.60;56.53
42003;BME280;27693;50.506;30.832;2023-05-03T03:50:54;100378.53;;;10.61;56.38
42003;BME280;27693;50.506;30.832;2023-05-03T03:51:57;100375.94;;;10.61;56.42
42003;BME280;27693;50.506;30.832;2023-05-03T03:53:00;100372.43;;;10.62;56.40
42003;BME280;27693;50.506;30.832;2023-05-03T03:54:03;100376.89;;;10.59;56.42
42003;BME280;27693;50.506;30.832;2023-05-03T03:55:07;100369.86;;;10.61;56.58
42003;BME280;27693;50.506;30.832;2023-05-03T03:56:10;100375.77;;;10.66;56.70
42003;BME280;27693;50.506;30.832;2023-05-03T03:57:13;100381.01;;;10.64;56.70
42003;BME280;27693;50.506;30.832;2023-05-03T03:58:15;100381.13;;;10.61;56.77
42003;BME280;27693;50.506;30.832;2023-05-03T03:59:18;100381.88;;;10.65;56.86
42003;BME280;27693;50.506;30.832;2023-05-03T04:00:22;100378.98;;;10.73;56.73
42003;BME280;27693;50.506;30.832;2023-05-03T04:01:26;100378.98;;;10.73;56.63
42003;BME280;27693;50.506;30.832;2023-05-03T04:02:29;100377.41;;;10.68;56.66
42003;BME280;27693;50.506;30.832;2023-05-03T04:03:33;100379.21;;;10.66;56.88
42003;BME280;27693;50.506;30.832;2023-05-03T04:04:36;100379.12;;;10.69;56.83
42003;BME280;27693;50.506;30.832;2023-05-03T04:05:38;100371.25;;;10.71;56.83
42003;BME280;27693;50.506;30.832;2023-05-03T04:06:41;100383.36;;;10.72;56.89
42003;BME280;27693;50.506;30.832;2023-05-03T04:07:46;100382.49;;;10.71;56.83
42003;BME280;27693;50.506;30.832;2023-05-03T04:08:49;100384.20;;;10.73;56.85
42003;BME280;27693;50.506;30.832;2023-05-03T04:09:52;100388.56;;;10.72;56.75
42003;BME280;27693;50.506;30.832;2023-05-03T04:10:54;100388.56;;;10.72;56.75
42003;BME280;27693;50.506;30.832;2023-05-03T04:11:57;100381.59;;;10.73;56.77
42003;BME280;27693;50.506;30.832;2023-05-03T04:12:59;100385.96;;;10.72;56.82
42003;BME280;27693;50.506;30.832;2023-05-03T04:14:02;100395.47;;;10.73;56.83
42003;BME280;27693;50.506;30.832;2023-05-03T04:15:07;100385.00;;;10.75;56.84
42003;BME280;27693;50.506;30.832;2023-05-03T04:16:10;100386.64;;;10.77;56.92
42003;BME280;27693;50.506;30.832;2023-05-03T04:17:13;100387.60;;;10.75;56.97
42003;BME280;27693;50.506;30.832;2023-05-03T04:18:16;100384.09;;;10.76;56.78
42003;BME280;27693;50.506;30.832;2023-05-03T04:19:19;100391.01;;;10.77;56.68
42003;BME280;27693;50.506;30.832;2023-05-03T04:20:23;100385.80;;;10.77;56.62
42003;BME280;27693;50.506;30.832;2023-05-03T04:21:26;100390.88;;;10.80;56.77
42003;BME280;27693;50.506;30.832;2023-05-03T04:22:31;100378.73;;;10.80;56.79
42003;BME280;27693;50.506;30.832;2023-05-03T04:23:34;100379.57;;;10.81;58.34
42003;BME280;27693;50.506;30.832;2023-05-03T04:24:37;100379.57;;;10.81;58.34
42003;BME280;27693;50.506;30.832;2023-05-03T04:25:43;100381.39;;;11.02;60.02
42003;BME280;27693;50.506;30.832;2023-05-03T04:26:48;100378.41;;;11.35;59.20
42003;BME280;27693;50.506;30.832;2023-05-03T04:27:54;100376.53;;;11.61;62.72
42003;BME280;27693;50.506;30.832;2023-05-03T04:28:57;100381.39;;;11.71;59.74
42003;BME280;27693;50.506;30.832;2023-05-03T04:30:00;100382.19;;;11.73;57.14
42003;BME280;27693;50.506;30.832;2023-05-03T04:31:05;100376.00;;;11.97;61.07
42003;BME280;27693;50.506;30.832;2023-05-03T04:32:07;100381.69;;;11.85;55.33
42003;BME280;27693;50.506;30.832;2023-05-03T04:33:11;100388.23;;;11.73;55.62
42003;BME280;27693;50.506;30.832;2023-05-03T04:34:15;100390.67;;;11.78;58.34
42003;BME280;27693;50.506;30.832;2023-05-03T04:35:19;100384.49;;;11.58;55.40
42003;BME280;27693;50.506;30.832;2023-05-03T04:36:22;100388.73;;;11.61;56.78
42003;BME280;27693;50.506;30.832;2023-05-03T04:37:27;100393.45;;;11.51;55.59
42003;BME280;27693;50.506;30.832;2023-05-03T04:38:30;100393.80;;;11.42;55.45
42003;BME280;27693;50.506;30.832;2023-05-03T04:39:34;100386.44;;;11.53;57.64
42003;BME280;27693;50.506;30.832;2023-05-03T04:40:40;100388.59;;;11.64;58.42
42003;BME280;27693;50.506;30.832;2023-05-03T04:41:44;100392.72;;;11.70;56.87
42003;BME280;27693;50.506;30.832;2023-05-03T04:42:49;100392.24;;;11.60;54.64
42003;BME280;27693;50.506;30.832;2023-05-03T04:43:52;100390.92;;;11.49;55.13
42003;BME280;27693;50.506;30.832;2023-05-03T04:44:57;100395.41;;;11.46;54.60
42003;BME280;27693;50.506;30.832;2023-05-03T04:46:02;100384.98;;;11.46;56.84
42003;BME280;27693;50.506;30.832;2023-05-03T04:47:07;100392.66;;;11.49;55.50
42003;BME280;27693;50.506;30.832;2023-05-03T04:48:10;100399.95;;;11.63;56.29
42003;BME280;27693;50.506;30.832;2023-05-03T04:49:14;100391.71;;;11.74;58.31
42003;BME280;27693;50.506;30.832;2023-05-03T04:50:18;100394.78;;;11.61;55.44
42003;BME280;27693;50.506;30.832;2023-05-03T04:51:22;100398.91;;;11.67;55.84
42003;BME280;27693;50.506;30.832;2023-05-03T04:52:26;100399.22;;;11.59;54.47
42003;BME280;27693;50.506;30.832;2023-05-03T04:53:29;100391.65;;;11.53;55.28
42003;BME280;27693;50.506;30.832;2023-05-03T04:54:35;100388.25;;;11.51;54.83
42003;BME280;27693;50.506;30.832;2023-05-03T04:55:38;100391.65;;;11.53;54.86
42003;BME280;27693;50.506;30.832;2023-05-03T04:56:40;100391.86;;;11.47;55.33
42003;BME280;27693;50.506;30.832;2023-05-03T04:57:48;100397.10;;;11.69;57.30
42003;BME280;27693;50.506;30.832;2023-05-03T04:58:53;100391.89;;;11.69;54.86
42003;BME280;27693;50.506;30.832;2023-05-03T04:59:57;100399.39;;;11.77;56.33
42003;BME280;27693;50.506;30.832;2023-05-03T05:00:59;100399.55;;;11.94;57.23
42003;BME280;27693;50.506;30.832;2023-05-03T05:02:04;100394.98;;;12.01;56.69
42003;BME280;27693;50.506;30.832;2023-05-03T05:03:07;100407.11;;;12.02;54.54
42003;BME280;27693;50.506;30.832;2023-05-03T05:04:09;100405.08;;;12.09;55.20
42003;BME280;27693;50.506;30.832;2023-05-03T05:05:15;100396.94;;;11.94;54.22
42003;BME280;27693;50.506;30.832;2023-05-03T05:06:20;100404.97;;;12.12;54.57
42003;BME280;27693;50.506;30.832;2023-05-03T05:07:23;100404.97;;;12.12;54.21
42003;BME280;27693;50.506;30.832;2023-05-03T05:08:25;100400.66;;;12.11;54.23
42003;BME280;27693;50.506;30.832;2023-05-03T05:09:30;100399.61;;;12.15;56.86
42003;BME280;27693;50.506;30.832;2023-05-03T05:10:39;100401.38;;;12.14;54.69
42003;BME280;27693;50.506;30.832;2023-05-03T05:11:43;100409.81;;;12.21;54.88
42003;BME280;27693;50.506;30.832;2023-05-03T05:12:46;100406.27;;;12.22;55.13
42003;BME280;27693;50.506;30.832;2023-05-03T05:13:48;100408.58;;;12.30;54.63
42003;BME280;27693;50.506;30.832;2023-05-03T05:14:52;100413.08;;;12.26;55.36
42003;BME280;27693;50.506;30.832;2023-05-03T05:15:55;100413.08;;;12.26;55.36
42003;BME280;27693;50.506;30.832;2023-05-03T05:16:57;100413.65;;;12.33;54.68
42003;BME280;27693;50.506;30.832;2023-05-03T05:18:01;100410.85;;;12.38;54.80
42003;BME280;27693;50.506;30.832;2023-05-03T05:19:04;100416.67;;;12.44;55.85
42003;BME280;27693;50.506;30.832;2023-05-03T05:20:08;100408.23;;;12.58;56.65
42003;BME280;27693;50.506;30.832;2023-05-03T05:21:12;100418.83;;;12.55;55.25
42003;BME280;27693;50.506;30.832;2023-05-03T05:22:17;100416.67;;;12.65;56.81
42003;BME280;27693;50.506;30.832;2023-05-03T05:23:23;100420.98;;;12.66;55.20
42003;BME280;27693;50.506;30.832;2023-05-03T05:24:25;100408.64;;;12.70;54.62
42003;BME280;27693;50.506;30.832;2023-05-03T05:25:28;100409.67;;;12.66;53.12
42003;BME280;27693;50.506;30.832;2023-05-03T05:26:31;100415.05;;;12.62;54.52
42003;BME280;27693;50.506;30.832;2023-05-03T05:27:34;100405.36;;;12.65;54.65
42003;BME280;27693;50.506;30.832;2023-05-03T05:28:37;100419.99;;;12.69;52.57
42003;BME280;27693;50.506;30.832;2023-05-03T05:29:40;100430.70;;;12.62;51.91
42003;BME280;27693;50.506;30.832;2023-05-03T05:30:42;100416.27;;;12.54;52.14
42003;BME280;27693;50.506;30.832;2023-05-03T05:31:45;100422.34;;;12.54;52.77
42003;BME280;27693;50.506;30.832;2023-05-03T05:32:48;100411.64;;;12.60;53.20
42003;BME280;27693;50.506;30.832;2023-05-03T05:33:51;100418.41;;;12.65;52.56
42003;BME280;27693;50.506;30.832;2023-05-03T05:34:53;100405.33;;;12.85;54.82
42003;BME280;27693;50.506;30.832;2023-05-03T05:36:00;100405.28;;;12.87;53.65
42003;BME280;27693;50.506;30.832;2023-05-03T05:37:02;100410.95;;;12.97;53.81
42003;BME280;27693;50.506;30.832;2023-05-03T05:38:07;100406.36;;;13.02;52.55